createdAt,value
2018-09-12T00:00:19.881Z,6.90
2018-09-12T00:02:48.724Z,6.97
2018-09-12T00:05:17.659Z,7.27
2018-09-12T00:07:46.563Z,6.83
2018-09-12T00:10:15.391Z,6.47
2018-09-12T00:12:44.227Z,6.93
2018-09-12T00:15:13.207Z,7.23
2018-09-12T00:17:42.085Z,7.50
2018-09-12T00:20:10.952Z,7.20
2018-09-12T00:22:39.932Z,7.07
2018-09-12T00:25:08.799Z,6.60
2018-09-12T00:27:37.633Z,6.93
2018-09-12T00:30:06.523Z,6.80
2018-09-12T00:32:35.355Z,7.00
2018-09-12T00:35:04.192Z,7.47
2018-09-12T00:37:33.086Z,6.53
2018-09-12T00:40:01.976Z,7.37
2018-09-12T00:42:30.823Z,6.60
2018-09-12T00:44:59.817Z,7.57
2018-09-12T00:47:28.716Z,7.43
2018-09-12T00:49:57.544Z,6.90
2018-09-12T00:52:26.422Z,7.00
2018-09-12T00:54:55.247Z,6.87
2018-09-12T00:57:24.117Z,7.43
2018-09-12T00:59:53.016Z,7.63
2018-09-12T01:02:21.868Z,7.87
2018-09-12T01:04:50.703Z,7.30
2018-09-12T01:07:19.627Z,7.40
2018-09-12T01:09:48.449Z,7.77
2018-09-12T01:12:17.316Z,7.40
2018-09-12T01:14:46.212Z,7.40
2018-09-12T01:17:15.059Z,7.00
2018-09-12T01:19:45.512Z,7.77
2018-09-12T01:22:14.509Z,7.87
2018-09-12T01:24:43.370Z,7.40
2018-09-12T01:27:12.314Z,8.10
2018-09-12T01:29:41.201Z,7.73
2018-09-12T01:32:10.028Z,8.03
2018-09-12T01:34:38.879Z,8.03
2018-09-12T01:37:07.803Z,7.57
2018-09-12T01:39:36.636Z,8.27
2018-09-12T01:42:05.588Z,7.27
2018-09-12T01:44:34.522Z,7.50
2018-09-12T01:47:03.380Z,7.83
2018-09-12T01:49:32.255Z,8.30
2018-09-12T01:52:01.137Z,8.20
2018-09-12T01:54:29.971Z,7.73
2018-09-12T01:56:58.868Z,7.33
2018-09-12T01:59:27.811Z,8.60
2018-09-12T02:01:56.643Z,7.87
2018-09-12T02:04:25.496Z,7.97
2018-09-12T02:06:54.385Z,7.87
2018-09-12T02:09:23.248Z,7.60
2018-09-12T02:11:52.071Z,8.20
2018-09-12T02:14:21.009Z,8.37
2018-09-12T02:16:49.892Z,8.43
2018-09-12T02:19:18.736Z,7.90
2018-09-12T02:21:47.706Z,7.80
2018-09-12T02:24:16.605Z,8.03
2018-09-12T02:26:45.613Z,8.77
2018-09-12T02:29:14.616Z,8.27
2018-09-12T02:31:43.472Z,8.73
2018-09-12T02:34:12.357Z,8.97
2018-09-12T02:36:41.250Z,8.80
2018-09-12T02:39:10.173Z,8.33
2018-09-12T02:41:39.027Z,8.87
2018-09-12T02:44:07.919Z,8.87
2018-09-12T02:46:36.797Z,9.07
2018-09-12T02:49:05.657Z,9.47
2018-09-12T02:51:34.524Z,9.03
2018-09-12T02:54:03.358Z,8.50
2018-09-12T02:56:32.194Z,9.63
2018-09-12T02:59:01.088Z,8.93
2018-09-12T03:01:29.923Z,9.23
2018-09-12T03:03:58.768Z,10.53
2018-09-12T03:06:27.648Z,10.80
2018-09-12T03:08:56.495Z,10.67
2018-09-12T03:11:25.347Z,9.67
2018-09-12T03:13:54.225Z,9.57
2018-09-12T03:16:23.117Z,9.00
2018-09-12T03:18:51.961Z,9.90
2018-09-12T03:21:20.840Z,9.40
2018-09-12T03:23:49.692Z,8.87
2018-09-12T03:26:18.534Z,10.67
2018-09-12T03:28:47.417Z,9.37
2018-09-12T03:31:16.416Z,10.27
2018-09-12T03:33:45.253Z,10.07
2018-09-12T03:36:14.219Z,11.03
2018-09-12T03:38:43.086Z,10.10
2018-09-12T03:41:11.929Z,9.87
2018-09-12T03:43:40.848Z,10.53
2018-09-12T03:46:09.712Z,9.87
2018-09-12T03:48:38.563Z,10.37
2018-09-12T03:51:07.461Z,10.27
2018-09-12T03:53:36.354Z,10.83
2018-09-12T03:56:05.172Z,10.87
2018-09-12T03:58:34.142Z,10.53
2018-09-12T04:01:02.992Z,11.33
2018-09-12T04:03:31.893Z,10.77
2018-09-12T04:06:00.793Z,11.20
2018-09-12T04:08:29.620Z,11.60
2018-09-12T04:10:58.474Z,11.30
2018-09-12T04:13:27.499Z,11.07
2018-09-12T04:15:56.362Z,11.23
2018-09-12T04:18:25.208Z,11.07
2018-09-12T04:20:54.099Z,11.87
2018-09-12T04:23:22.975Z,11.47
2018-09-12T04:25:51.820Z,12.27
2018-09-12T04:28:21.928Z,11.03
2018-09-12T04:30:51.970Z,11.67
2018-09-12T04:33:20.858Z,11.03
2018-09-12T04:35:49.900Z,11.60
2018-09-12T04:38:18.882Z,11.90
2018-09-12T04:40:47.717Z,11.73
2018-09-12T04:43:16.975Z,11.40
2018-09-12T04:45:45.912Z,11.60
2018-09-12T04:48:15.044Z,11.70
2018-09-12T04:50:44.143Z,12.07
2018-09-12T04:53:13.013Z,11.10
2018-09-12T04:55:42.117Z,11.93
2018-09-12T04:58:11.012Z,11.73
2018-09-12T05:00:39.945Z,11.23
2018-09-12T05:03:08.833Z,11.50
2018-09-12T05:05:37.820Z,12.37
2018-09-12T05:08:07.524Z,11.40
2018-09-12T05:10:36.392Z,11.27
2018-09-12T05:13:05.333Z,11.80
2018-09-12T05:15:34.186Z,11.70
2018-09-12T05:18:03.060Z,11.67
2018-09-12T05:20:31.990Z,11.87
2018-09-12T05:23:00.951Z,11.60
2018-09-12T05:25:30.543Z,12.20
2018-09-12T05:27:59.445Z,12.30
2018-09-12T05:30:28.388Z,12.80
2018-09-12T05:33:10.010Z,12.30
2018-09-12T05:35:38.897Z,11.97
2018-09-12T05:38:07.821Z,12.30
2018-09-12T05:40:36.697Z,11.63
2018-09-12T05:43:05.582Z,12.43
2018-09-12T05:45:34.536Z,13.53
2018-09-12T05:48:04.321Z,12.93
2018-09-12T05:50:33.204Z,11.27
2018-09-12T05:53:02.141Z,11.20
2018-09-12T05:55:31.021Z,11.83
2018-09-12T05:57:59.902Z,11.13
2018-09-12T06:00:29.001Z,11.60
2018-09-12T06:02:57.891Z,10.67
2018-09-12T06:05:26.846Z,11.73
2018-09-12T06:07:56.618Z,12.50
2018-09-12T06:10:25.868Z,11.70
2018-09-12T06:12:54.990Z,12.37
2018-09-12T06:15:23.940Z,11.37
2018-09-12T06:17:53.030Z,11.50
2018-09-12T06:20:21.893Z,11.90
2018-09-12T06:22:50.975Z,11.70
2018-09-12T06:25:19.901Z,11.80
2018-09-12T06:27:48.785Z,11.13
2018-09-12T06:30:17.771Z,10.23
2018-09-12T06:32:46.646Z,10.83
2018-09-12T06:35:15.556Z,10.10
2018-09-12T06:37:44.488Z,10.17
2018-09-12T06:40:13.388Z,10.53
2018-09-12T06:42:42.277Z,9.93
2018-09-12T06:45:11.234Z,9.53
2018-09-12T06:47:40.162Z,9.93
2018-09-12T06:50:09.131Z,9.30
2018-09-12T06:52:38.038Z,10.23
2018-09-12T06:55:06.937Z,9.97
2018-09-12T06:57:35.793Z,9.70
2018-09-12T07:00:04.875Z,9.43
2018-09-12T07:02:33.755Z,9.40
2018-09-12T07:05:02.590Z,9.13
2018-09-12T07:07:31.612Z,9.50
2018-09-12T07:10:00.444Z,9.30
2018-09-12T07:12:29.316Z,8.73
2018-09-12T07:14:58.229Z,8.80
2018-09-12T07:17:27.091Z,7.60
2018-09-12T07:19:55.948Z,7.40
2018-09-12T07:22:24.857Z,7.47
2018-09-12T07:24:53.699Z,7.40
2018-09-12T07:27:22.542Z,7.83
2018-09-12T07:29:51.432Z,7.03
2018-09-12T07:32:20.259Z,6.97
2018-09-12T07:34:49.076Z,6.87
2018-09-12T07:37:18.008Z,7.30
2018-09-12T07:39:46.882Z,6.50
2018-09-12T07:42:15.733Z,7.72
2018-09-12T07:44:44.598Z,6.25
2018-09-12T07:47:13.472Z,6.33
2018-09-12T07:49:42.307Z,6.22
2018-09-12T07:52:11.232Z,7.30
2018-09-12T07:54:40.176Z,6.67
2018-09-12T07:57:09.023Z,6.80
2018-09-12T07:59:38.000Z,6.72
2018-09-12T08:02:06.839Z,6.57
2018-09-12T08:04:36.257Z,7.25
2018-09-12T08:07:05.155Z,8.23
2018-09-12T08:09:34.004Z,6.80
2018-09-12T08:12:02.855Z,5.87
2018-09-12T08:14:31.772Z,6.17
2018-09-12T08:17:00.635Z,6.25
2018-09-12T08:19:29.492Z,5.90
2018-09-12T08:21:58.500Z,5.43
2018-09-12T08:24:27.379Z,5.43
2018-09-12T08:26:56.234Z,6.10
2018-09-12T08:29:25.132Z,5.12
2018-09-12T08:31:54.577Z,5.50
2018-09-12T08:34:23.403Z,5.03
2018-09-12T08:36:52.317Z,5.47
2018-09-12T08:39:21.144Z,5.20
2018-09-12T08:41:49.972Z,4.53
2018-09-12T08:44:18.861Z,4.50
2018-09-12T08:46:47.740Z,5.08
2018-09-12T08:49:16.629Z,4.72
2018-09-12T08:51:45.502Z,4.58
2018-09-12T08:54:14.344Z,3.87
2018-09-12T08:56:43.275Z,3.60
2018-09-12T08:59:12.180Z,4.05
2018-09-12T09:01:41.118Z,3.52
2018-09-12T09:04:10.014Z,3.60
2018-09-12T09:06:38.901Z,4.03
2018-09-12T09:09:10.080Z,3.60
2018-09-12T09:11:39.097Z,3.30
2018-09-12T09:14:08.064Z,4.67
2018-09-12T09:16:37.745Z,3.75
2018-09-12T09:19:06.633Z,4.50
2018-09-12T09:21:35.508Z,3.10
2018-09-12T09:24:04.343Z,3.20
2018-09-12T09:26:33.347Z,23.32
2018-09-12T09:29:02.204Z,2.87
2018-09-12T09:31:31.077Z,2.80
2018-09-12T09:34:00.088Z,3.12
2018-09-12T09:36:28.924Z,3.22
2018-09-12T09:38:57.755Z,6.97
2018-09-12T09:41:26.648Z,2.80
2018-09-12T09:43:55.520Z,2.40
2018-09-12T09:46:24.373Z,2.42
2018-09-12T09:48:53.271Z,2.50
2018-09-12T09:51:22.119Z,2.08
2018-09-12T09:53:50.974Z,2.40
2018-09-12T09:56:19.911Z,2.90
2018-09-12T09:58:49.030Z,2.12
2018-09-12T10:01:23.099Z,2.40
2018-09-12T10:03:57.052Z,2.22
2018-09-12T10:06:32.880Z,2.22
2018-09-12T10:09:05.979Z,2.50
2018-09-12T10:11:34.863Z,2.40
2018-09-12T10:14:03.697Z,2.95
2018-09-12T10:16:32.540Z,2.67
2018-09-12T10:19:01.429Z,2.90
2018-09-12T10:21:30.269Z,2.70
2018-09-12T10:23:59.112Z,2.83
2018-09-12T10:26:27.995Z,2.87
2018-09-12T10:28:56.844Z,2.22
2018-09-12T10:31:25.746Z,2.87
2018-09-12T10:33:54.626Z,2.70
2018-09-12T10:36:23.481Z,2.50
2018-09-12T10:38:52.409Z,2.37
2018-09-12T10:41:21.385Z,2.33
2018-09-12T10:43:50.419Z,2.40
2018-09-12T10:46:19.253Z,2.10
2018-09-12T10:48:48.234Z,1.90
2018-09-12T10:51:17.094Z,2.10
2018-09-12T10:53:45.970Z,2.30
2018-09-12T10:56:14.985Z,2.17
2018-09-12T10:58:43.843Z,2.62
2018-09-12T11:01:12.765Z,1.82
2018-09-12T11:03:41.679Z,2.37
2018-09-12T11:06:10.512Z,2.50
2018-09-12T11:08:39.354Z,2.27
2018-09-12T11:11:08.252Z,2.52
2018-09-12T11:13:37.161Z,2.55
2018-09-12T11:16:06.008Z,2.27
2018-09-12T11:18:34.859Z,2.37
2018-09-12T11:21:03.712Z,2.20
2018-09-12T11:23:32.554Z,2.45
2018-09-12T11:26:01.428Z,2.95
2018-09-12T11:28:30.294Z,2.17
2018-09-12T11:30:59.126Z,2.30
2018-09-12T11:33:28.003Z,2.27
2018-09-12T11:35:56.897Z,2.00
2018-09-12T11:38:25.733Z,2.35
2018-09-12T11:40:54.840Z,1.95
2018-09-12T11:43:23.709Z,2.00
2018-09-12T11:45:52.617Z,2.02
2018-09-12T11:48:21.531Z,2.37
2018-09-12T11:50:50.389Z,2.30
2018-09-12T11:53:19.284Z,2.15
2018-09-12T11:55:48.294Z,2.50
2018-09-12T11:58:17.144Z,2.40
2018-09-12T12:00:45.981Z,2.77
2018-09-12T12:03:14.901Z,2.50
2018-09-12T12:05:43.799Z,2.22
2018-09-12T12:08:12.623Z,3.02
2018-09-12T12:10:41.623Z,2.62
2018-09-12T12:13:10.459Z,2.05
2018-09-12T12:15:39.352Z,1.92
2018-09-12T12:18:08.294Z,1.90
2018-09-12T12:20:37.161Z,2.60
2018-09-12T12:23:06.139Z,2.70
2018-09-12T12:25:35.037Z,2.40
2018-09-12T12:28:03.877Z,2.40
2018-09-12T12:30:32.758Z,2.50
2018-09-12T12:33:01.628Z,2.65
2018-09-12T12:35:30.602Z,2.62
2018-09-12T12:37:59.368Z,1.87
2018-09-12T12:40:28.359Z,2.25
2018-09-12T12:42:57.199Z,2.45
2018-09-12T12:45:26.025Z,2.25
2018-09-12T12:47:57.561Z,2.40
2018-09-12T12:50:26.393Z,1.82
2018-09-12T12:52:55.253Z,2.47
2018-09-12T12:55:24.163Z,2.72
2018-09-12T12:57:53.006Z,2.08
2018-09-12T13:00:21.840Z,2.20
2018-09-12T13:02:50.732Z,2.08
2018-09-12T13:05:19.578Z,1.80
2018-09-12T13:07:48.416Z,2.00
2018-09-12T13:10:17.433Z,2.15
2018-09-12T13:12:46.253Z,2.40
2018-09-12T13:15:15.122Z,1.98
2018-09-12T13:17:44.811Z,2.90
2018-09-12T13:20:13.626Z,3.10
2018-09-12T13:22:42.479Z,2.27
2018-09-12T13:25:11.388Z,2.45
2018-09-12T13:27:40.369Z,2.37
2018-09-12T13:30:09.194Z,2.35
2018-09-12T13:32:38.167Z,2.50
2018-09-12T13:35:07.049Z,2.33
2018-09-12T13:37:36.057Z,2.87
2018-09-12T13:40:05.203Z,2.77
2018-09-12T13:42:34.045Z,2.87
2018-09-12T13:45:02.879Z,2.17
2018-09-12T13:47:31.751Z,2.22
2018-09-12T13:50:00.607Z,2.42
2018-09-12T13:52:29.422Z,2.00
2018-09-12T13:54:58.387Z,2.42
2018-09-12T13:57:27.231Z,2.30
2018-09-12T13:59:56.095Z,2.35
2018-09-12T14:02:25.016Z,2.30
2018-09-12T14:04:53.932Z,2.20
2018-09-12T14:07:22.774Z,2.60
2018-09-12T14:09:51.780Z,2.30
2018-09-12T14:12:20.632Z,2.40
2018-09-12T14:14:49.511Z,2.25
2018-09-12T14:17:18.787Z,2.83
2018-09-12T14:19:47.690Z,2.70
2018-09-12T14:22:16.525Z,1.95
2018-09-12T14:24:45.504Z,2.42
2018-09-12T14:27:14.366Z,2.67
2018-09-12T14:29:43.270Z,2.40
2018-09-12T14:32:12.222Z,2.50
2018-09-12T14:34:41.224Z,2.65
2018-09-12T14:37:10.144Z,2.67
2018-09-12T14:39:39.269Z,2.87
2018-09-12T14:42:08.206Z,2.30
2018-09-12T14:44:37.037Z,2.52
2018-09-12T14:47:06.001Z,2.25
2018-09-12T14:49:35.643Z,2.35
2018-09-12T14:52:04.487Z,2.67
2018-09-12T14:54:33.476Z,2.42
2018-09-12T14:57:02.403Z,2.58
2018-09-12T14:59:31.557Z,2.92
2018-09-12T15:02:00.384Z,3.65
2018-09-12T15:04:29.241Z,3.08
2018-09-12T15:06:58.160Z,2.30
2018-09-12T15:09:26.996Z,2.58
2018-09-12T15:11:56.942Z,2.92
2018-09-12T15:14:25.783Z,2.58
2018-09-12T15:16:55.272Z,2.50
2018-09-12T15:19:24.122Z,2.95
2018-09-12T15:21:53.070Z,2.77
2018-09-12T15:24:22.842Z,3.00
2018-09-12T15:26:51.718Z,3.25
2018-09-12T15:29:20.756Z,3.12
2018-09-12T15:31:50.041Z,3.22
2018-09-12T15:34:18.955Z,2.90
2018-09-12T15:36:47.919Z,2.90
2018-09-12T15:39:16.952Z,3.02
2018-09-12T15:41:45.834Z,2.65
2018-09-12T15:44:14.719Z,2.60
2018-09-12T15:46:43.650Z,2.50
2018-09-12T15:49:12.496Z,2.70
2018-09-12T15:51:41.345Z,2.80
2018-09-12T15:54:10.276Z,2.52
2018-09-12T15:56:39.126Z,3.30
2018-09-12T15:59:08.029Z,2.90
2018-09-12T16:01:36.891Z,2.75
2018-09-12T16:04:05.897Z,2.75
2018-09-12T16:06:34.765Z,3.00
2018-09-12T16:09:04.379Z,3.00
2018-09-12T16:11:33.237Z,2.37
2018-09-12T16:14:02.234Z,3.05
2018-09-12T16:16:31.123Z,3.40
2018-09-12T16:18:59.992Z,3.10
2018-09-12T16:21:28.849Z,3.22
2018-09-12T16:24:00.263Z,2.98
2018-09-12T16:26:29.315Z,2.77
2018-09-12T16:28:58.151Z,3.90
2018-09-12T16:31:27.118Z,3.40
2018-09-12T16:33:56.139Z,3.20
2018-09-12T16:36:25.391Z,3.20
2018-09-12T16:38:54.233Z,3.30
2018-09-12T16:41:23.108Z,3.12
2018-09-12T16:43:52.080Z,4.05
2018-09-12T16:46:20.927Z,4.83
2018-09-12T16:48:49.973Z,4.80
2018-09-12T16:51:19.006Z,4.53
2018-09-12T16:53:47.868Z,4.25
2018-09-12T16:56:16.915Z,3.60
2018-09-12T16:58:50.799Z,3.40
2018-09-12T17:01:22.511Z,4.28
2018-09-12T17:03:51.363Z,3.60
2018-09-12T17:06:20.266Z,3.72
2018-09-12T17:08:49.208Z,3.90
2018-09-12T17:11:18.164Z,4.00
2018-09-12T17:13:47.116Z,3.83
2018-09-12T17:16:15.959Z,4.00
2018-09-12T17:18:44.906Z,3.63
2018-09-12T17:21:15.098Z,3.75
2018-09-12T17:23:44.048Z,4.07
2018-09-12T17:26:12.942Z,3.80
2018-09-12T17:28:41.881Z,3.43
2018-09-12T17:31:10.721Z,3.50
2018-09-12T17:33:39.664Z,4.70
2018-09-12T17:36:08.499Z,5.10
2018-09-12T17:38:37.377Z,5.73
2018-09-12T17:41:06.289Z,6.20
2018-09-12T17:43:35.199Z,4.97
2018-09-12T17:46:04.057Z,6.03
2018-09-12T17:48:33.400Z,6.07
2018-09-12T17:51:03.228Z,5.60
2018-09-12T17:53:32.293Z,6.70
2018-09-12T17:56:02.649Z,6.40
2018-09-12T17:58:36.792Z,6.40
2018-09-12T18:01:05.857Z,6.87
2018-09-12T18:03:34.870Z,6.93
2018-09-12T18:06:03.852Z,8.53
2018-09-12T18:08:32.708Z,8.33
2018-09-12T18:11:01.935Z,10.13
2018-09-12T18:13:43.841Z,10.40
2018-09-12T18:16:13.424Z,10.20
2018-09-12T18:18:42.410Z,10.73
2018-09-12T18:21:11.361Z,11.23
2018-09-12T18:23:40.644Z,10.60
2018-09-12T18:26:09.553Z,9.87
2018-09-12T18:28:38.544Z,9.43
2018-09-12T18:31:07.507Z,10.00
2018-09-12T18:33:36.328Z,10.47
2018-09-12T18:36:05.209Z,10.60
2018-09-12T18:38:34.312Z,11.00
2018-09-12T18:41:03.552Z,11.87
2018-09-12T18:43:32.525Z,12.10
2018-09-12T18:46:07.550Z,11.30
2018-09-12T18:51:52.340Z,9.37
2018-09-12T18:57:11.535Z,10.20
2018-09-12T18:59:42.144Z,10.43
2018-09-12T19:02:11.692Z,9.73
2018-09-12T19:04:40.990Z,10.33
2018-09-12T19:07:11.624Z,10.00
2018-09-12T19:09:42.600Z,10.10
2018-09-12T19:12:12.478Z,9.60
2018-09-12T19:14:42.374Z,10.27
2018-09-12T19:17:12.880Z,10.10
2018-09-12T19:19:48.280Z,10.73
2018-09-12T19:22:21.185Z,17.00
2018-09-12T19:25:11.268Z,14.53
2018-09-12T19:27:46.351Z,12.93
2018-09-12T19:30:17.278Z,11.33
2018-09-12T19:32:46.947Z,12.87
2018-09-12T19:35:16.797Z,13.90
2018-09-12T19:37:45.885Z,15.30
2018-09-12T19:40:14.913Z,14.17
2018-09-12T19:42:43.939Z,12.23
2018-09-12T19:45:12.890Z,11.87
2018-09-12T19:47:41.929Z,10.90
2018-09-12T19:50:10.842Z,16.03
2018-09-12T19:52:39.884Z,24.13
2018-09-12T19:55:08.881Z,24.67
2018-09-12T19:57:37.809Z,17.10
2018-09-12T20:00:12.336Z,13.43
2018-09-12T20:02:41.266Z,12.70
2018-09-12T20:05:10.182Z,23.77
2018-09-12T20:07:39.155Z,12.57
2018-09-12T20:10:08.145Z,11.17
2018-09-12T20:12:37.157Z,11.77
2018-09-12T20:15:06.133Z,13.10
2018-09-12T20:17:35.106Z,15.03
2018-09-12T20:20:04.018Z,15.87
2018-09-12T20:22:33.499Z,10.53
2018-09-12T20:25:03.323Z,11.53
2018-09-12T20:27:33.594Z,10.87
2018-09-12T20:30:03.096Z,10.33
2018-09-12T20:32:32.284Z,9.53
2018-09-12T20:35:01.373Z,9.47
2018-09-12T20:37:30.451Z,9.33
2018-09-12T20:39:59.402Z,9.30
2018-09-12T20:42:28.610Z,10.13
2018-09-12T20:44:57.636Z,11.33
2018-09-12T20:47:26.695Z,10.90
2018-09-12T20:49:55.984Z,10.67
2018-09-12T20:52:24.872Z,10.10
2018-09-12T20:54:54.191Z,9.37
2018-09-12T20:57:23.536Z,9.03
2018-09-12T20:59:52.928Z,8.40
2018-09-12T21:02:22.277Z,7.70
2018-09-12T21:04:51.405Z,8.77
2018-09-12T21:07:21.012Z,8.30
2018-09-12T21:09:50.851Z,8.13
2018-09-12T21:12:20.261Z,8.00
2018-09-12T21:14:50.602Z,7.77
2018-09-12T21:17:19.948Z,8.40
2018-09-12T21:19:49.294Z,8.13
2018-09-12T21:22:18.674Z,8.57
2018-09-12T21:24:51.499Z,8.40
2018-09-12T21:27:20.840Z,7.77
2018-09-12T21:29:50.114Z,8.20
2018-09-12T21:32:26.199Z,8.97
2018-09-12T21:34:57.437Z,8.73
2018-09-12T21:37:27.679Z,8.50
2018-09-12T21:39:57.600Z,8.03
2018-09-12T21:42:27.023Z,8.40
2018-09-12T21:44:56.311Z,8.33
2018-09-12T21:47:25.632Z,7.63
2018-09-12T21:49:54.741Z,6.93
2018-09-12T21:52:23.811Z,7.30
2018-09-12T21:54:52.851Z,6.77
2018-09-12T21:57:21.931Z,6.93
2018-09-12T21:59:50.825Z,6.40
2018-09-12T22:02:19.775Z,6.30
2018-09-12T22:04:48.668Z,5.97
2018-09-12T22:07:17.557Z,6.10
2018-09-12T22:09:46.522Z,5.70
2018-09-12T22:12:15.403Z,5.97
2018-09-12T22:14:44.328Z,6.27
2018-09-12T22:17:13.228Z,6.27
2018-09-12T22:19:42.106Z,5.97
2018-09-12T22:22:10.970Z,5.77
2018-09-12T22:24:39.942Z,5.30
2018-09-12T22:27:08.812Z,5.83
2018-09-12T22:29:37.686Z,5.80
2018-09-12T22:32:06.674Z,5.40
2018-09-12T22:34:35.558Z,5.53
2018-09-12T22:37:04.481Z,5.27
2018-09-12T22:39:33.472Z,5.30
2018-09-12T22:42:02.334Z,5.90
2018-09-12T22:44:31.202Z,5.40
2018-09-12T22:47:00.152Z,5.80
2018-09-12T22:49:29.036Z,5.80
2018-09-12T22:51:58.268Z,5.43
2018-09-12T22:54:27.206Z,5.20
2018-09-12T22:56:56.089Z,5.57
2018-09-12T22:59:24.951Z,5.60
2018-09-12T23:01:53.874Z,6.30
2018-09-12T23:04:22.852Z,5.40
2018-09-12T23:06:51.760Z,5.53
2018-09-12T23:09:20.678Z,5.70
2018-09-12T23:11:49.640Z,5.77
2018-09-12T23:14:18.523Z,5.67
2018-09-12T23:16:47.451Z,5.37
2018-09-12T23:19:16.337Z,5.83
2018-09-12T23:21:45.213Z,5.63
2018-09-12T23:24:14.124Z,5.83
2018-09-12T23:26:43.004Z,5.57
2018-09-12T23:29:11.868Z,5.13
2018-09-12T23:31:40.773Z,5.17
2018-09-12T23:34:09.649Z,5.20
2018-09-12T23:36:38.491Z,5.93
2018-09-12T23:39:10.371Z,4.83
2018-09-12T23:41:39.264Z,4.83
2018-09-12T23:44:08.325Z,5.17
2018-09-12T23:46:37.330Z,4.73
2018-09-12T23:49:06.892Z,4.63
2018-09-12T23:51:35.773Z,4.70
2018-09-12T23:54:04.817Z,4.67
2018-09-12T23:56:33.682Z,4.73
2018-09-12T23:59:02.545Z,4.80
